• Join FlightAware (Why Join?)
  • Login
  • US Flag 
02:09PM EST


 

Airport Tracker/Info


-or-


 

Live Flight TrackerFlight Track Log ✈ N148CZ ✈ 15-Aug-2013 ✈ KBGR - KFRG

Flight Track Log - Related Links

Times and Time Zones

All times are in EDT time to prevent confusion due to time zone crossing. See the N148CZ flight status page for this flight to view local times or setup timezone preferences in your user account.

Time Position Orientation Groundspeed Altitude Reporting Facility
EDT Latitude Longitude Course Direction KTS MPH feet Rate Location/Type
07:08PM 41.9708 -72.1917 220° Southwest 169 194 6,500  Level Boston Center
07:09PM 41.9333 -72.2336 220° Southwest 169 194 6,500  Level Boston Center
07:11PM 41.8875 -72.2867 221° Southwest 167 192 6,500  Level Boston Center
07:12PM 41.8544 -72.3258 221° Southwest 163 188 6,500  Level Boston Center
07:13PM 41.8189 -72.3650 219° Southwest 164 189 6,500  Level Boston Center
07:14PM 41.7814 -72.4039 218° Southwest 166 191 6,500 -60 Level Boston Center
07:15PM 41.7461 -72.4428 219° Southwest 168 193 6,400  Descending Boston Center
07:16PM 41.7086 -72.4847 220° Southwest 169 194 6,500  Climbing Boston Center
07:17PM 41.6708 -72.5233 217° Southwest 166 191 6,500  Level Boston Center
07:18PM 41.6356 -72.5650 221° Southwest 166 191 6,500  Level Boston Center
07:19PM 41.6000 -72.6039 219° Southwest 166 191 6,500  Level Boston Center
07:21PM 41.5333 -72.6833 222° Southwest 167 192 6,600  Climbing New York TRACON
07:22PM 41.5000 -72.7167 217° Southwest 170 196 6,600  Level New York TRACON
07:23PM 41.4500 -72.7667 217° Southwest 171 197 6,600  Level New York TRACON
07:24PM 41.4167 -72.8000 217° Southwest 171 197 6,600  Level New York TRACON
07:25PM 41.3833 -72.8333 217° Southwest 174 200 6,600 -120 Level New York TRACON
07:26PM 41.3500 -72.8833 228° Southwest 183 211 6,400 -300 Descending New York TRACON
07:27PM 41.3000 -72.9333 217° Southwest 186 214 6,100 -360 Descending New York TRACON
07:28PM 41.2667 -72.9667 217° Southwest 182 209 5,700 -360 Descending New York TRACON
07:29PM 41.2333 -73.0167 228° Southwest 186 214 5,400 -420 Descending New York TRACON
07:30PM 41.1833 -73.0500 207° Southwest 181 208 5,000 -360 Descending New York TRACON
07:35PM 40.9920 -73.2630 207° Southwest 179 206 3,400 -360 Descending FlightAware
07:35PM 40.9820 -73.2740 220° Southwest 176 203 3,300 -540 Descending FlightAware
07:36PM 40.9690 -73.2870 217° Southwest 170 196 3,100 -600 Descending FlightAware
07:36PM 40.9580 -73.2990 219° Southwest 164 189 2,900 -300 Descending FlightAware
07:36PM 40.9450 -73.3130 219° Southwest 164 189 2,900 -360 Level FlightAware
07:37PM 40.9460 -73.3130 360° North 164 189 2,600 -720 Descending FlightAware
07:37PM 40.9580 -73.2990 41° Northeast 164 189 2,300 -420 Descending FlightAware
07:38PM 40.9440 -73.3140 219° Southwest 164 189 2,300 -120 Level FlightAware
07:38PM 40.9580 -73.2990 39° Northeast 149 171 2,200 -180 Descending FlightAware
07:38PM 40.9460 -73.3120 219° Southwest 149 171 2,200 -180 Level FlightAware
07:39PM 40.8650 -73.3800 212° Southwest 129 148 2,100 -660 Descending FlightAware
07:39PM 40.8540 -73.3900 215° Southwest 128 147 1,900 -300 Descending FlightAware
07:40PM 40.8350 -73.4070 214° Southwest 126 145 1,800 -480 Descending FlightAware
07:41PM 40.8460 -73.3960 37° Northeast 900 -600 Descending FlightAware